| time (UTC) | temp F | wind direction | speed MPH | gust MPH | rain 1hr in | rain 24hr in | rain mn in | humidity % | barometer mb |
| 20260906073007 | 68 | 21 | 10.0 | 13.0 | 0.00 | 0.00 | 0.00 | 45 | 1016.0 |
| 20260906072007 | 68 | 58 | 10.0 | 16.0 | 0.00 | 0.00 | 0.00 | 46 | 1016.2 |
| 20260906065007 | 66 | 68 | 10.0 | 11.0 | 0.00 | 0.00 | 0.00 | 48 | 1015.7 |
| 20260906064009 | 66 | 32 | 11.0 | 13.0 | 0.00 | 0.00 | 0.00 | 47 | 1015.6 |
| 20260906063008 | 66 | 69 | 11.0 | 15.0 | 0.00 | 0.00 | 0.00 | 47 | 1015.2 |
| 20260906062008 | 65 | 43 | 12.0 | 15.0 | 0.00 | 0.00 | 0.00 | 48 | 1015.2 |
| 20260906061007 | 65 | 59 | 16.0 | 22.0 | 0.00 | 0.00 | 0.00 | 48 | 1015.2 |
| 20260906060007 | 64 | 46 | 15.0 | 18.0 | 0.00 | 0.00 | 0.00 | 48 | 1015.0 |
| 20260906055007 | 64 | 77 | 14.0 | 16.0 | 0.00 | 0.00 | 0.00 | 48 | 1015.0 |
| 20260906054007 | 64 | 89 | 13.0 | 16.0 | 0.00 | 0.00 | 0.00 | 48 | 1014.7 |
| 20260906053007 | 62 | 91 | 11.0 | 13.0 | 0.00 | 0.00 | 0.00 | 51 | 1015.1 |
| 20260906052007 | 61 | 346 | 10.0 | 13.0 | 0.00 | 0.00 | 0.00 | 49 | 1015.0 |
| 20260906045008 | 63 | 95 | 12.0 | 17.0 | 0.00 | 0.00 | 0.00 | 47 | 1014.8 |
| 20260906044008 | 63 | 45 | 16.0 | 18.0 | 0.00 | 0.00 | 0.00 | 45 | 1014.7 |
| 20260906043008 | 64 | 48 | 17.0 | 20.0 | 0.00 | 0.00 | 0.00 | 44 | 1014.7 |
| 20260906041010 | 64 | 62 | 15.0 | 18.0 | 0.00 | 0.00 | 0.00 | 42 | 1014.4 |
| 20260906040008 | 60 | 45 | 10.0 | 14.0 | 0.00 | 0.00 | 0.00 | 50 | 1014.6 |
| 20260906035007 | 59 | 7 | 13.0 | 13.0 | 0.00 | 0.00 | 0.00 | 51 | 1014.6 |
| 20260906034007 | 59 | 15 | 10.0 | 11.0 | 0.00 | 0.00 | 0.00 | 52 | 1014.4 |
| 20260906031007 | 62 | 58 | 16.0 | 20.0 | 0.00 | 0.00 | 0.00 | 48 | 1014.2 |
| 20260906030007 | 62 | 43 | 14.0 | 17.0 | 0.00 | 0.00 | 0.00 | 50 | 1014.2 |
| 20260906025007 | 61 | 66 | 12.0 | 17.0 | 0.00 | 0.00 | 0.00 | 51 | 1014.3 |
| 20260906024007 | 61 | 84 | 16.0 | 21.0 | 0.00 | 0.00 | 0.00 | 50 | 1014.2 |
| 20260906023007 | 63 | 65 | 19.0 | 21.0 | 0.00 | 0.00 | 0.00 | 44 | 1014.0 |
| 20260906022007 | 64 | 55 | 18.0 | 22.0 | 0.00 | 0.00 | 0.00 | 43 | 1014.1 |
| 20260906021007 | 63 | 55 | 15.0 | 17.0 | 0.00 | 0.00 | 0.00 | 44 | 1014.1 |
| 20260906020007 | 63 | 68 | 14.0 | 15.0 | 0.00 | 0.00 | 0.00 | 45 | 1014.1 |
| 20260906015007 | 63 | 54 | 14.0 | 17.0 | 0.00 | 0.00 | 0.00 | 46 | 1014.2 |
| 20260906013008 | 63 | 59 | 16.0 | 18.0 | 0.00 | 0.00 | 0.00 | 47 | 1014.2 |
| 20260906012008 | 60 | 52 | 13.0 | 17.0 | 0.00 | 0.00 | 0.00 | 52 | 1014.2 |
| 20260906010007 | 63 | 49 | 15.0 | 16.0 | 0.00 | 0.00 | 0.00 | 47 | 1014.3 |
| 20260906005007 | 63 | 42 | 17.0 | 20.0 | 0.00 | 0.00 | 0.00 | 48 | 1014.3 |
| 20260906004007 | 63 | 57 | 15.0 | 17.0 | 0.00 | 0.00 | 0.00 | 49 | 1014.2 |
| 20260906003007 | 62 | 43 | 13.0 | 15.0 | 0.00 | 0.00 | 0.00 | 49 | 1014.4 |
| 20260906002007 | 62 | 56 | 14.0 | 16.0 | 0.00 | 0.00 | 0.00 | 49 | 1014.3 |
| 20260906001010 | 60 | 12 | 10.0 | 13.0 | 0.00 | 0.00 | 0.00 | 53 | 1014.2 |
| 20260905235007 | 60 | 6 | 9.0 | 11.0 | 0.00 | 0.00 | 0.00 | 54 | 1014.4 |
| 20260905234007 | 60 | 20 | 9.0 | 11.0 | 0.00 | 0.00 | 0.00 | 54 | 1014.4 |
| 20260905233007 | 60 | 15 | 9.0 | 11.0 | 0.00 | 0.00 | 0.00 | 54 | 1014.5 |
| 20260905232007 | 60 | 346 | 9.0 | 11.0 | 0.00 | 0.00 | 0.00 | 55 | 1014.5 |
| 20260905231010 | 60 | 347 | 9.0 | 13.0 | 0.00 | 0.00 | 0.00 | 55 | 1014.6 |
| 20260905230008 | 60 | 3 | 11.0 | 15.0 | 0.00 | 0.00 | 0.00 | 53 | 1014.7 |
| 20260905225008 | 60 | 6 | 11.0 | 14.0 | 0.00 | 0.00 | 0.00 | 54 | 1014.6 |
| 20260905222007 | 61 | 357 | 16.0 | 17.0 | 0.00 | 0.00 | 0.00 | 53 | 1014.6 |
| 20260905220007 | 61 | 358 | 17.0 | 21.0 | 0.00 | 0.00 | 0.00 | 52 | 1014.5 |
| 20260905215007 | 61 | 343 | 19.0 | 23.0 | 0.00 | 0.00 | 0.00 | 53 | 1014.4 |
| 20260905214007 | 61 | 30 | 19.0 | 23.0 | 0.00 | 0.00 | 0.00 | 52 | 1014.3 |
| 20260905213007 | 62 | 322 | 15.0 | 20.0 | 0.00 | 0.00 | 0.00 | 51 | 1014.4 |
| 20260905211007 | 62 | 330 | 16.0 | 20.0 | 0.00 | 0.00 | 0.00 | 51 | 1014.5 |
| 20260905205008 | 62 | 328 | 20.0 | 23.0 | 0.00 | 0.00 | 0.00 | 50 | 1014.3 |
| 20260905203007 | 62 | 5 | 21.0 | 22.0 | 0.00 | 0.00 | 0.00 | 50 | 1014.4 |
| 20260905202010 | 62 | 354 | 19.0 | 21.0 | 0.00 | 0.00 | 0.00 | 50 | 1014.5 |
| 20260905201007 | 62 | 350 | 19.0 | 22.0 | 0.00 | 0.00 | 0.00 | 50 | 1014.6 |
| 20260905200007 | 62 | 348 | 17.0 | 18.0 | 0.00 | 0.00 | 0.00 | 49 | 1014.6 |
| 20260905195007 | 62 | 347 | 16.0 | 18.0 | 0.00 | 0.00 | 0.00 | 50 | 1014.6 |
| 20260905194007 | 62 | 349 | 17.0 | 18.0 | 0.00 | 0.00 | 0.00 | 50 | 1014.6 |
| 20260905193007 | 62 | 348 | 18.0 | 21.0 | 0.00 | 0.00 | 0.00 | 49 | 1014.7 |
| 20260905192010 | 62 | 1 | 16.0 | 18.0 | 0.00 | 0.00 | 0.00 | 49 | 1014.6 |
| 20260905191007 | 62 | 4 | 16.0 | 17.0 | 0.00 | 0.00 | 0.00 | 49 | 1014.6 |
| 20260905190007 | 62 | 352 | 13.0 | 15.0 | 0.00 | 0.00 | 0.00 | 50 | 1014.7 |
| 20260905185007 | 62 | 1 | 13.0 | 15.0 | 0.00 | 0.00 | 0.00 | 51 | 1014.8 |
| 20260905184007 | 62 | 355 | 13.0 | 15.0 | 0.00 | 0.00 | 0.00 | 50 | 1014.6 |
| 20260905181007 | 61 | 342 | 10.0 | 11.0 | 0.00 | 0.00 | 0.00 | 53 | 1014.3 |
| 20260905180007 | 60 | 346 | 8.0 | 11.0 | 0.00 | 0.00 | 0.00 | 57 | 1014.3 |
| 20260905175007 | 60 | 349 | 5.0 | 6.0 | 0.00 | 0.00 | 0.00 | 60 | 1014.2 |
| 20260905174007 | 60 | 336 | 3.0 | 4.0 | 0.00 | 0.00 | 0.00 | 62 | 1014.1 |
| 20260905173007 | 60 | 336 | 1.0 | 2.0 | 0.00 | 0.00 | 0.00 | 63 | 1014.1 |
| 20260905172007 | 60 | 343 | 2.0 | 4.0 | 0.00 | 0.00 | 0.00 | 63 | 1014.1 |
| 20260905171007 | 62 | 334 | 6.0 | 7.0 | 0.00 | 0.00 | 0.00 | 61 | 1013.9 |
| 20260905164007 | 62 | 316 | 2.0 | 2.0 | 0.00 | 0.00 | 0.00 | 55 | 1014.0 |
| 20260905163007 | 62 | 337 | 5.0 | 8.0 | 0.00 | 0.00 | 0.00 | 56 | 1013.9 |
| 20260905162007 | 62 | 334 | 5.0 | 9.0 | 0.00 | 0.00 | 0.00 | 55 | 1013.9 |
| 20260905161007 | 63 | 17 | 6.0 | 8.0 | 0.00 | 0.00 | 0.00 | 52 | 1014.1 |
| 20260905160007 | 63 | 342 | 8.0 | 11.0 | 0.00 | 0.00 | 0.00 | 53 | 1014.0 |
| 20260905155007 | 63 | 346 | 10.0 | 11.0 | 0.00 | 0.00 | 0.00 | 51 | 1013.8 |
| 20260905154011 | 64 | 341 | 10.0 | 13.0 | 0.00 | 0.00 | 0.00 | 50 | 1013.9 |
| 20260905153007 | 65 | 6 | 13.0 | 15.0 | 0.00 | 0.00 | 0.00 | 50 | 1013.7 |
| 20260905152011 | 65 | 351 | 11.0 | 14.0 | 0.00 | 0.00 | 0.00 | 49 | 1013.9 |
| 20260905151007 | 66 | 30 | 8.0 | 11.0 | 0.00 | 0.00 | 0.00 | 47 | 1013.7 |
| 20260905150007 | 66 | 349 | 8.0 | 11.0 | 0.00 | 0.00 | 0.00 | 47 | 1013.8 |
| 20260905145007 | 67 | 36 | 7.0 | 11.0 | 0.00 | 0.00 | 0.00 | 47 | 1013.7 |
| 20260905144007 | 67 | 31 | 9.0 | 11.0 | 0.00 | 0.00 | 0.00 | 47 | 1013.6 |
| 20260905143007 | 67 | 96 | 8.0 | 11.0 | 0.00 | 0.00 | 0.00 | 47 | 1013.6 |
| 20260905141007 | 67 | 33 | 9.0 | 11.0 | 0.00 | 0.00 | 0.00 | 46 | 1013.9 |
| 20260905135010 | 68 | 10 | 6.0 | 8.0 | 0.00 | 0.00 | 0.00 | 44 | 1013.7 |
| 20260905131007 | 67 | 26 | 13.0 | 17.0 | 0.00 | 0.00 | 0.00 | 45 | 1013.8 |
| 20260905130007 | 67 | 52 | 16.0 | 20.0 | 0.00 | 0.00 | 0.00 | 45 | 1014.1 |
| 20260905124007 | 66 | 14 | 18.0 | 24.0 | 0.00 | 0.00 | 0.00 | 48 | 1013.8 |
| 20260905123007 | 66 | 53 | 15.0 | 18.0 | 0.00 | 0.00 | 0.00 | 47 | 1013.6 |
| 20260905122009 | 66 | 344 | 16.0 | 21.0 | 0.00 | 0.00 | 0.00 | 47 | 1013.9 |
| 20260905121007 | 66 | 3 | 15.0 | 21.0 | 0.00 | 0.00 | 0.00 | 49 | 1014.0 |
| 20260905120007 | 65 | 27 | 15.0 | 20.0 | 0.00 | 0.00 | 0.00 | 48 | 1014.2 |
| 20260905115007 | 66 | 56 | 14.0 | 20.0 | 0.00 | 0.00 | 0.00 | 50 | 1014.0 |
| 20260905114007 | 65 | 324 | 15.0 | 18.0 | 0.00 | 0.00 | 0.00 | 51 | 1014.2 |
| 20260905113007 | 65 | 19 | 12.0 | 18.0 | 0.00 | 0.00 | 0.00 | 50 | 1014.0 |
| 20260905112007 | 64 | 34 | 13.0 | 18.0 | 0.00 | 0.00 | 0.00 | 51 | 1014.3 |
| 20260905111007 | 65 | 57 | 13.0 | 16.0 | 0.00 | 0.00 | 0.00 | 52 | 1014.4 |
| 20260905110007 | 65 | 1 | 12.0 | 17.0 | 0.00 | 0.00 | 0.00 | 51 | 1014.2 |
| 20260905104007 | 64 | 32 | 10.0 | 15.0 | 0.00 | 0.00 | 0.00 | 53 | 1014.6 |
| 20260905103007 | 64 | 20 | 11.0 | 17.0 | 0.00 | 0.00 | 0.00 | 52 | 1014.4 |
| 20260905102006 | 64 | 349 | 11.0 | 16.0 | 0.00 | 0.00 | 0.00 | 52 | 1014.3 |
| 20260905101007 | 63 | 51 | 8.0 | 11.0 | 0.00 | 0.00 | 0.00 | 52 | 1014.7 |
| 20260905095007 | 63 | 13 | 9.0 | 14.0 | 0.00 | 0.00 | 0.00 | 54 | 1014.9 |
| 20260905094007 | 62 | 351 | 10.0 | 14.0 | 0.00 | 0.00 | 0.00 | 54 | 1014.8 |
| 20260905093010 | 63 | 3 | 9.0 | 15.0 | 0.00 | 0.00 | 0.00 | 54 | 1014.8 |
| 20260905092007 | 62 | 25 | 10.0 | 13.0 | 0.00 | 0.00 | 0.00 | 56 | 1014.9 |
| 20260905091007 | 61 | 353 | 12.0 | 16.0 | 0.00 | 0.00 | 0.00 | 56 | 1014.9 |
| 20260905084007 | 61 | 47 | 10.0 | 13.0 | 0.00 | 0.00 | 0.00 | 56 | 1015.3 |
| 20260905083007 | 61 | 333 | 9.0 | 13.0 | 0.00 | 0.00 | 0.00 | 55 | 1015.2 |
| 20260905082007 | 60 | 342 | 11.0 | 16.0 | 0.00 | 0.00 | 0.00 | 56 | 1015.1 |
| 20260905081007 | 60 | 349 | 16.0 | 21.0 | 0.00 | 0.00 | 0.00 | 55 | 1015.2 |
| 20260905080007 | 60 | 10 | 15.0 | 20.0 | 0.00 | 0.00 | 0.00 | 56 | 1014.9 |
| 20260905075007 | 60 | 352 | 14.0 | 17.0 | 0.00 | 0.00 | 0.00 | 56 | 1014.7 |
| 20260905074007 | 60 | 91 | 15.0 | 20.0 | 0.00 | 0.00 | 0.00 | 56 | 1014.5 |